Time;durP1;ratioP1;P1;durP2;ratioP2;P2;SDS_P1;SDS_P2;PMS_P1;PMS_P2;Temp;Humidity;BMP_temperature;BMP_pressure;BME280_temperature;BME280_humidity;BME280_pressure;Samples;Min_cycle;Max_cycle;Signal;HPM_P1;HPM_P2
2021/04/19 00:00:08;;;;;;;10.90;6.40;;;;;;;0.01;93.39;100320.47;1698637;83;21238;-76
2021/04/19 00:02:36;;;;;;;10.70;6.83;;;;;;;0.04;93.37;100324.38;1643020;86;21443;-76
2021/04/19 00:05:07;;;;;;;10.25;6.00;;;;;;;0.03;93.44;100322.65;1697571;84;21221;-75
2021/04/19 00:07:36;;;;;;;12.23;6.22;;;;;;;0.04;93.60;100316.60;1692783;84;21237;-74
2021/04/19 00:10:07;;;;;;;9.73;6.08;;;;;;;0.01;93.57;100320.91;1695289;84;21180;-74
2021/04/19 00:12:36;;;;;;;10.30;6.78;;;;;;;-0.01;93.59;100320.88;1687919;84;21120;-75
2021/04/19 00:15:06;;;;;;;7.00;4.60;;;;;;;-0.01;93.44;100323.47;1702625;84;21815;-73
2021/04/19 00:17:34;;;;;;;7.47;4.03;;;;;;;-0.04;93.37;100316.98;1639924;87;21144;-74
2021/04/19 00:20:06;;;;;;;10.88;7.12;;;;;;;-0.02;93.46;100319.16;1702866;84;21738;-74
2021/04/19 00:22:35;;;;;;;10.65;7.40;;;;;;;-0.03;93.54;100326.03;1641750;87;21666;-74
2021/04/19 00:25:05;;;;;;;10.85;7.00;;;;;;;-0.09;93.48;100310.47;1641690;87;21201;-74
2021/04/19 00:27:33;;;;;;;11.60;7.05;;;;;;;-0.15;93.43;100309.54;1707153;83;21404;-73
2021/04/19 00:30:04;;;;;;;11.70;7.83;;;;;;;-0.18;93.36;100311.67;1704034;84;21178;-74
2021/04/19 00:32:33;;;;;;;11.18;7.80;;;;;;;-0.23;93.25;100307.75;1704090;84;24083;-74
2021/04/19 00:35:03;;;;;;;9.93;7.37;;;;;;;-0.27;93.30;100305.97;1704007;84;21215;-73
2021/04/19 00:37:33;;;;;;;11.38;8.05;;;;;;;-0.30;93.41;100305.06;1704130;84;21183;-74
2021/04/19 00:40:05;;;;;;;10.98;7.90;;;;;;;-0.30;93.55;100305.95;1704250;84;21223;-73
2021/04/19 00:42:33;;;;;;;12.33;8.65;;;;;;;-0.28;93.51;100308.10;1703951;84;21191;-74
2021/04/19 00:45:04;;;;;;;11.10;8.48;;;;;;;-0.30;93.34;100300.78;1704265;84;21734;-73
2021/04/19 00:47:33;;;;;;;11.08;7.42;;;;;;;-0.31;93.34;100297.73;1704502;84;21209;-73
2021/04/19 00:50:07;;;;;;;11.88;7.08;;;;;;;-0.33;93.37;100290.38;1704236;84;21194;-74
2021/04/19 00:52:35;;;;;;;8.20;6.15;;;;;;;-0.34;93.40;100291.24;1704116;84;21386;-74
2021/04/19 00:55:03;;;;;;;5.65;4.55;;;;;;;-0.32;93.53;100290.84;1704165;84;21683;-74
2021/04/19 00:57:32;;;;;;;13.00;7.55;;;;;;;-0.30;93.51;100298.19;1704009;83;21203;-74
2021/04/19 01:00:01;;;;;;;10.30;7.37;;;;;;;-0.30;93.40;100291.72;1704243;84;21188;-74
2021/04/19 01:02:29;;;;;;;15.18;11.03;;;;;;;-0.32;93.46;100290.84;1710432;83;21619;-73
2021/04/19 01:04:57;;;;;;;14.90;9.63;;;;;;;-0.31;93.53;100288.67;1716795;83;21440;-76
2021/04/19 01:07:26;;;;;;;17.55;11.38;;;;;;;-0.32;93.47;100293.83;1716364;83;21238;-75
2021/04/19 01:10:00;;;;;;;13.18;10.35;;;;;;;-0.35;93.35;100290.78;1716485;83;21679;-75
2021/04/19 01:12:30;;;;;;;15.85;9.30;;;;;;;-0.33;93.36;100294.26;1716547;82;21184;-73
2021/04/19 01:14:59;;;;;;;13.28;8.90;;;;;;;-0.33;93.31;100286.93;1718025;83;21206;-78
2021/04/19 01:17:27;;;;;;;11.78;8.25;;;;;;;-0.37;93.25;100282.56;1718031;83;21203;-75
2021/04/19 01:19:55;;;;;;;12.82;8.28;;;;;;;-0.39;93.24;100283.87;1717874;83;21198;-77
2021/04/19 01:22:23;;;;;;;13.88;7.10;;;;;;;-0.43;93.22;100283.39;1717916;83;21127;-74
2021/04/19 01:24:51;;;;;;;8.73;5.90;;;;;;;-0.46;93.12;100285.92;1691375;83;21201;-77
2021/04/19 01:27:21;;;;;;;10.28;5.25;;;;;;;-0.49;93.12;100284.17;1709690;83;21210;-75
2021/04/19 01:29:49;;;;;;;8.75;5.30;;;;;;;-0.52;93.28;100284.16;1717961;83;21832;-73
2021/04/19 01:32:17;;;;;;;11.53;6.12;;;;;;;-0.54;93.45;100282.41;1717797;83;21195;-73
2021/04/19 01:34:49;;;;;;;10.93;5.58;;;;;;;-0.55;93.48;100283.23;1717864;83;21743;-73
2021/04/19 01:37:18;;;;;;;7.97;5.15;;;;;;;-0.57;93.41;100281.09;1717769;83;21155;-74
2021/04/19 01:39:46;;;;;;;6.92;5.33;;;;;;;-0.56;93.40;100282.81;1717825;83;21179;-75
2021/04/19 01:42:16;;;;;;;12.03;7.47;;;;;;;-0.55;93.49;100275.48;1717952;83;21686;-75
2021/04/19 01:44:44;;;;;;;9.73;6.50;;;;;;;-0.55;93.57;100278.96;1718228;83;21995;-75
2021/04/19 01:47:13;;;;;;;10.03;6.78;;;;;;;-0.56;93.45;100271.17;1718040;83;21587;-74
2021/04/19 01:49:42;;;;;;;9.48;6.87;;;;;;;-0.55;93.42;100270.30;1718103;83;21653;-74
2021/04/19 01:52:10;;;;;;;11.43;6.58;;;;;;;-0.54;93.37;100271.63;1717850;83;21683;-74
2021/04/19 01:54:38;;;;;;;8.85;6.37;;;;;;;-0.55;93.38;100272.89;1717885;83;21390;-73
2021/04/19 01:57:08;;;;;;;9.78;6.30;;;;;;;-0.57;93.46;100269.45;1717799;83;21155;-74
2021/04/19 01:59:39;;;;;;;9.30;6.53;;;;;;;-0.58;93.52;100270.28;1717908;83;21595;-74
2021/04/19 02:02:25;;;;;;;7.75;5.05;;;;;;;-0.57;93.50;100277.21;1714941;83;21271;-74
2021/04/19 02:05:11;;;;;;;5.80;3.77;;;;;;;-0.59;93.40;100275.89;1704287;84;21175;-80
2021/04/19 02:07:50;;;;;;;7.37;5.05;;;;;;;-0.60;93.42;100275.43;1705010;84;22752;-83
2021/04/19 02:10:32;;;;;;;9.68;5.85;;;;;;;-0.60;93.41;100271.98;1694292;83;21211;-83
2021/04/19 02:13:37;;;;;;;12.78;7.03;;;;;;;-0.64;93.49;100264.20;1623151;87;21212;-83
2021/04/19 02:16:55;;;;;;;9.80;6.15;;;;;;;-0.63;93.67;100267.65;1620013;87;21944;-82
2021/04/19 02:19:44;;;;;;;5.35;4.05;;;;;;;-0.65;93.56;100270.21;1703347;84;21144;-84
2021/04/19 02:22:20;;;;;;;10.20;6.25;;;;;;;-0.66;93.53;100272.80;1697298;84;21827;-81
2021/04/19 02:24:52;;;;;;;8.53;6.37;;;;;;;-0.67;93.63;100276.22;1702979;84;21187;-83
2021/04/19 02:27:33;;;;;;;10.10;6.60;;;;;;;-0.68;93.81;100275.36;1619478;88;21740;-83
2021/04/19 02:30:08;;;;;;;8.88;5.62;;;;;;;-0.68;93.85;100274.06;1690509;84;21196;-83
2021/04/19 02:32:36;;;;;;;5.62;4.33;;;;;;;-0.66;93.83;100277.55;1690733;84;21217;-83
2021/04/19 02:35:11;;;;;;;7.45;5.50;;;;;;;-0.66;93.85;100269.78;1690609;83;22268;-83
2021/04/19 02:37:41;;;;;;;11.65;5.90;;;;;;;-0.67;93.85;100270.65;1690195;84;21288;-84
2021/04/19 02:40:10;;;;;;;5.47;3.98;;;;;;;-0.68;93.82;100275.36;1690572;84;21193;-84
2021/04/19 02:42:41;;;;;;;5.28;3.60;;;;;;;-0.70;93.78;100278.35;1690656;84;21185;-85
2021/04/19 02:45:09;;;;;;;;;;;;;;;-0.69;93.80;100277.92;1693491;84;21455;-82
2021/04/19 02:47:45;;;;;;;9.45;6.78;;;;;;;-0.72;93.91;100271.00;1690541;84;22668;-85
2021/04/19 02:50:30;;;;;;;13.37;7.70;;;;;;;-0.62;94.02;100277.56;1806508;79;22230;-83
2021/04/19 02:52:59;;;;;;;14.60;7.35;;;;;;;-0.67;94.04;100289.16;1776886;80;21094;-82
2021/04/19 02:55:28;;;;;;;11.33;7.65;;;;;;;-0.69;94.11;100278.81;1776863;80;21769;-81
2021/04/19 02:58:03;;;;;;;12.23;8.28;;;;;;;-0.67;94.18;100277.52;1748379;80;21142;-82
2021/04/19 03:00:47;;;;;;;8.55;6.10;;;;;;;-0.66;94.09;100277.55;1746360;82;21710;-81
2021/04/19 03:03:26;;;;;;;10.60;7.20;;;;;;;-0.68;94.00;100271.91;1740270;82;21174;-84
2021/04/19 03:05:57;;;;;;;11.50;6.75;;;;;;;-0.69;94.04;100272.34;1746229;82;21189;-82
2021/04/19 03:08:28;;;;;;;11.05;5.67;;;;;;;-0.68;94.08;100278.38;1746187;82;21201;-81
2021/04/19 03:11:20;;;;;;;11.20;5.95;;;;;;;-0.71;94.16;100277.92;1746237;82;21063;-82
2021/04/19 03:13:52;;;;;;;8.53;6.03;;;;;;;-0.69;94.17;100273.64;1745859;82;21149;-81
2021/04/19 03:16:22;;;;;;;9.53;6.15;;;;;;;-0.66;94.18;100272.80;1745277;82;21243;-83
2021/04/19 03:18:52;;;;;;;7.55;5.33;;;;;;;-0.62;94.30;100276.27;1746665;82;21162;-82
2021/04/19 03:21:24;;;;;;;6.78;5.40;;;;;;;-0.49;94.60;100274.27;1749986;82;21269;-82
2021/04/19 03:24:10;;;;;;;9.60;6.30;;;;;;;-0.22;95.02;100275.81;1749960;82;21170;-80
2021/04/19 03:26:58;;;;;;;10.98;8.05;;;;;;;0.27;94.85;100282.26;1870505;76;28279;-83
2021/04/19 03:29:27;;;;;;;;;;;;;;;0.62;94.19;100275.59;1836532;77;21067;-79
2021/04/19 03:32:09;;;;;;;11.25;6.70;;;;;;;0.98;93.22;100275.32;1820731;78;21356;-80
2021/04/19 03:34:39;;;;;;;9.20;6.03;;;;;;;1.26;92.78;100279.31;1821285;78;21201;-81
2021/04/19 03:37:13;;;;;;;9.55;6.53;;;;;;;1.63;92.19;100276.81;1817483;78;21155;-82
2021/04/19 03:39:45;;;;;;;10.75;6.50;;;;;;;1.98;91.41;100272.97;1811334;79;21642;-79
2021/04/19 03:42:13;;;;;;;13.85;7.53;;;;;;;2.26;90.43;100262.12;1746068;80;21156;-79
2021/04/19 03:44:44;;;;;;;17.57;6.50;;;;;;;2.66;89.52;100272.44;1757702;81;21281;-81
2021/04/19 03:47:13;;;;;;;16.55;6.80;;;;;;;2.99;88.85;100273.23;1755677;81;21229;-79
2021/04/19 03:49:55;;;;;;;12.73;6.97;;;;;;;3.40;88.07;100265.64;1845986;75;22732;-79
2021/04/19 03:52:28;;;;;;;9.05;6.12;;;;;;;3.65;87.05;100266.80;1816615;79;20972;-81
2021/04/19 03:54:56;;;;;;;6.60;4.75;;;;;;;3.98;86.43;100267.87;1819770;79;21379;-83
2021/04/19 03:57:26;;;;;;;10.72;5.83;;;;;;;4.29;85.43;100274.12;1820083;76;21390;-85
2021/04/19 04:00:04;;;;;;;7.95;5.08;;;;;;;4.55;84.43;100274.30;1789779;78;21027;-82
2021/04/19 04:02:54;;;;;;;9.50;6.17;;;;;;;4.76;83.31;100267.58;1785911;80;21158;-84
2021/04/19 04:05:37;;;;;;;9.85;5.10;;;;;;;5.09;82.33;100273.28;1781043;80;21190;-85
2021/04/19 04:08:21;;;;;;;8.53;5.37;;;;;;;5.55;81.28;100262.22;1757856;79;26674;-86
2021/04/19 04:10:50;;;;;;;5.90;4.58;;;;;;;5.87;80.50;100263.05;1719342;83;21198;-88
2021/04/19 04:13:19;;;;;;;6.03;4.60;;;;;;;6.22;77.85;100258.16;1718593;83;22004;-85
2021/04/19 04:15:56;;;;;;;6.40;4.90;;;;;;;6.39;76.57;100260.02;1718294;83;21868;-86
2021/04/19 04:18:24;;;;;;;7.42;5.17;;;;;;;6.57;75.95;100264.06;1694221;82;21179;-86
2021/04/19 04:20:53;;;;;;;10.15;4.80;;;;;;;6.80;76.07;100261.46;1719915;83;21127;-90
2021/04/19 04:23:23;;;;;;;6.97;5.00;;;;;;;7.18;75.76;100254.57;1718739;83;21159;-87
2021/04/19 04:25:52;;;;;;;7.03;4.95;;;;;;;7.57;73.61;100259.42;1714838;80;79056;-79
2021/04/19 04:28:22;;;;;;;6.70;4.80;;;;;;;7.88;72.84;100259.55;1673933;85;21212;-79
2021/04/19 04:31:11;;;;;;;7.22;5.65;;;;;;;8.29;71.67;100254.19;1873287;76;28295;-77
2021/04/19 04:33:42;;;;;;;6.65;5.35;;;;;;;8.60;71.10;100257.77;1853224;77;22275;-78
2021/04/19 04:36:12;;;;;;;8.05;5.50;;;;;;;8.95;69.88;100259.88;1840890;77;21206;-77
2021/04/19 04:38:44;;;;;;;6.75;4.67;;;;;;;9.22;69.20;100254.71;1788433;80;21194;-78
2021/04/19 04:41:13;;;;;;;8.85;5.60;;;;;;;9.48;69.39;100256.58;1802864;78;21221;-78
2021/04/19 04:43:42;;;;;;;6.22;4.67;;;;;;;9.88;68.58;100248.75;1789090;78;21170;-79
2021/04/19 04:46:30;;;;;;;7.45;5.42;;;;;;;10.36;69.35;100249.84;1793036;78;21182;-79
2021/04/19 04:49:06;;;;;;;9.68;5.45;;;;;;;10.96;67.25;100251.21;1804469;78;21363;-78
2021/04/19 04:51:35;;;;;;;6.80;5.12;;;;;;;11.52;64.33;100240.28;1792860;78;21186;-78
2021/04/19 04:54:11;;;;;;;9.38;4.97;;;;;;;11.96;64.04;100236.38;1788589;80;21605;-77
2021/04/19 04:56:42;;;;;;;6.53;5.00;;;;;;;12.43;62.01;100232.66;1788606;80;21162;-79
2021/04/19 04:59:10;;;;;;;6.00;4.17;;;;;;;12.90;61.06;100238.09;1807768;78;21168;-78
2021/04/19 05:01:38;;;;;;;7.90;5.42;;;;;;;13.23;60.09;100232.59;1768808;80;22306;-79
2021/04/19 05:04:06;;;;;;;5.97;4.83;;;;;;;13.63;58.73;100232.05;1788424;78;21197;-80
2021/04/19 05:06:34;;;;;;;5.20;4.30;;;;;;;13.96;57.59;100228.69;1773970;80;21187;-79
2021/04/19 05:09:03;;;;;;;8.63;4.60;;;;;;;14.29;56.72;100222.66;1780631;80;22219;-80
2021/04/19 05:11:31;;;;;;;5.35;3.87;;;;;;;14.49;55.20;100224.27;1779636;80;21219;-79
2021/04/19 05:14:03;;;;;;;7.65;4.40;;;;;;;14.76;54.69;100222.00;1738183;80;21365;-79
2021/04/19 05:16:31;;;;;;;6.47;3.52;;;;;;;14.97;53.07;100219.15;1793666;79;21178;-79
2021/04/19 05:19:04;;;;;;;4.67;3.77;;;;;;;15.01;52.53;100214.08;1800354;79;21179;-79
2021/04/19 05:21:34;;;;;;;5.28;3.12;;;;;;;15.14;52.09;100208.50;1815646;79;21135;-78
2021/04/19 05:24:02;;;;;;;5.33;3.20;;;;;;;15.51;51.67;100209.11;1815635;79;21567;-78
2021/04/19 05:26:30;;;;;;;7.20;3.47;;;;;;;15.77;50.24;100204.14;1805389;79;21202;-78
2021/04/19 05:28:59;;;;;;;6.67;3.40;;;;;;;15.94;51.06;100207.55;1787962;79;21214;-80
2021/04/19 05:31:26;;;;;;;9.38;3.77;;;;;;;16.34;50.60;100207.00;1788632;78;21198;-80
2021/04/19 05:33:58;;;;;;;9.73;3.12;;;;;;;16.86;49.34;100210.48;1788241;80;21211;-78
2021/04/19 05:36:26;;;;;;;;;;;;;;;17.28;47.74;100207.43;1791378;78;21154;-79
2021/04/19 05:38:54;;;;;;;3.65;3.10;;;;;;;17.68;46.74;100208.84;1793918;79;21391;-79
2021/04/19 05:41:22;;;;;;;3.65;2.98;;;;;;;18.07;45.49;100211.19;1794236;79;21677;-78
2021/04/19 05:43:50;;;;;;;9.45;3.47;;;;;;;18.30;43.96;100211.45;1794096;79;21190;-78
2021/04/19 05:46:18;;;;;;;4.75;3.12;;;;;;;18.30;43.27;100205.64;1765636;79;21202;-80
2021/04/19 05:48:47;;;;;;;3.60;2.98;;;;;;;18.39;43.45;100209.50;1771999;79;21538;-79
2021/04/19 05:51:25;;;;;;;4.60;3.58;;;;;;;18.64;42.97;100210.84;1805999;78;21234;-79
2021/04/19 05:53:56;;;;;;;4.55;2.92;;;;;;;18.76;42.64;100213.63;1764846;80;21836;-79
2021/04/19 05:56:38;;;;;;;4.65;3.30;;;;;;;18.91;42.33;100201.04;1753440;80;21191;-80
2021/04/19 05:59:39;;;;;;;4.72;3.40;;;;;;;19.15;41.05;100204.64;1765395;80;21213;-79
2021/04/19 06:02:09;;;;;;;8.43;3.00;;;;;;;19.42;40.90;100199.13;1787858;78;21171;-79
2021/04/19 06:04:56;;;;;;;12.88;3.58;;;;;;;19.72;39.41;100197.88;1796835;79;21497;-79
2021/04/19 06:07:47;;;;;;;3.42;3.02;;;;;;;19.85;39.96;100197.80;1796524;79;21178;-80
2021/04/19 06:10:42;;;;;;;7.40;3.30;;;;;;;20.07;39.36;100195.72;1792540;79;21174;-80
2021/04/19 06:13:13;;;;;;;4.15;2.80;;;;;;;20.47;38.23;100194.84;1786066;79;21632;-79
2021/04/19 06:15:43;;;;;;;8.10;3.42;;;;;;;20.53;37.39;100193.53;1798361;79;21647;-80
2021/04/19 06:18:11;;;;;;;4.22;2.90;;;;;;;20.39;37.83;100192.41;1774529;80;22366;-80
2021/04/19 06:20:39;;;;;;;3.52;2.75;;;;;;;20.52;37.67;100191.81;1780693;79;21190;-80
2021/04/19 06:23:08;;;;;;;4.78;2.75;;;;;;;20.77;36.10;100199.30;1775702;79;21144;-79
2021/04/19 06:25:36;;;;;;;3.45;2.80;;;;;;;20.91;36.17;100194.58;1757189;80;21139;-80
2021/04/19 06:28:06;;;;;;;7.25;2.80;;;;;;;20.88;36.16;100188.60;1770115;80;21179;-79
2021/04/19 06:30:41;;;;;;;;;;;;;;;20.98;36.71;100188.25;1787477;79;21229;-80
2021/04/19 06:33:05;;;;;;;5.05;3.20;;;;;;;21.25;36.39;100188.33;1775660;79;20272;-79
2021/04/19 06:35:34;;;;;;;3.10;2.50;;;;;;;21.47;35.44;100192.35;1759276;81;21162;-79
2021/04/19 06:38:03;;;;;;;6.35;2.70;;;;;;;21.67;35.59;100188.51;1775687;79;21175;-80
2021/04/19 06:40:30;;;;;;;4.65;3.10;;;;;;;21.90;34.97;100185.26;1772090;79;21186;-80
2021/04/19 06:42:58;;;;;;;4.58;3.33;;;;;;;22.06;34.47;100187.51;1789157;79;21382;-79
2021/04/19 06:45:26;;;;;;;13.13;3.40;;;;;;;22.18;33.33;100178.45;1777197;79;21206;-80
2021/04/19 06:47:57;;;;;;;9.20;3.30;;;;;;;22.02;32.56;100177.55;1774081;79;21111;-80
2021/04/19 06:50:25;;;;;;;4.73;3.20;;;;;;;21.65;33.73;100180.62;1778307;79;21218;-79
2021/04/19 06:52:53;;;;;;;3.95;2.90;;;;;;;21.53;34.16;100182.95;1790816;79;21227;-78
2021/04/19 06:55:21;;;;;;;7.85;3.10;;;;;;;21.74;34.36;100180.31;1790049;80;21249;-79
2021/04/19 06:57:58;;;;;;;5.33;3.70;;;;;;;21.96;33.33;100174.03;1771530;80;21206;-80
2021/04/19 07:00:28;;;;;;;12.47;4.17;;;;;;;21.85;32.93;100177.59;1771475;80;21234;-80
2021/04/19 07:02:59;;;;;;;6.50;4.33;;;;;;;21.88;33.56;100173.81;1767492;80;21131;-81
2021/04/19 07:05:30;;;;;;;5.03;3.80;;;;;;;22.08;32.98;100172.14;1778230;79;21170;-80
2021/04/19 07:08:26;;;;;;;4.95;3.98;;;;;;;22.20;32.62;100171.09;1778214;79;21385;-80
2021/04/19 07:11:04;;;;;;;4.95;3.87;;;;;;;22.27;33.03;100173.67;1774944;79;21554;-77
2021/04/19 07:13:36;;;;;;;6.08;3.90;;;;;;;22.43;32.82;100177.23;1770229;80;21597;-81
2021/04/19 07:16:05;;;;;;;8.40;3.92;;;;;;;22.39;32.32;100176.63;1764551;80;21221;-81
2021/04/19 07:18:34;;;;;;;6.00;4.15;;;;;;;22.37;32.52;100176.41;1758226;80;21166;-80
2021/04/19 07:21:06;;;;;;;5.75;4.42;;;;;;;22.34;32.99;100174.84;1765830;80;22198;-80
2021/04/19 07:23:38;;;;;;;5.85;4.92;;;;;;;22.11;32.34;100176.77;1768080;80;21196;-80
2021/04/19 07:26:06;;;;;;;13.18;5.83;;;;;;;21.84;32.64;100175.91;1763389;80;21151;-80
2021/04/19 07:28:37;;;;;;;10.05;5.72;;;;;;;21.80;32.90;100175.80;1764477;80;21177;-80
2021/04/19 07:31:10;;;;;;;7.00;4.95;;;;;;;21.74;32.96;100166.92;1765663;79;21166;-81
2021/04/19 07:33:38;;;;;;;7.40;5.53;;;;;;;21.40;32.77;100168.38;1793309;79;22715;-81
2021/04/19 07:36:34;;;;;;;6.47;5.37;;;;;;;21.11;33.34;100172.88;1802013;78;21210;-81
2021/04/19 07:39:09;;;;;;;13.95;5.35;;;;;;;20.64;33.56;100171.33;1786262;80;21651;-81
2021/04/19 07:41:55;;;;;;;7.75;5.58;;;;;;;20.06;34.57;100164.13;1792341;78;21658;-80
2021/04/19 07:44:47;;;;;;;7.92;4.92;;;;;;;19.62;35.22;100166.08;1770499;80;21187;-81
2021/04/19 07:47:37;;;;;;;7.42;6.05;;;;;;;19.47;35.83;100156.06;1790839;78;21311;-79
2021/04/19 07:50:20;;;;;;;7.60;4.83;;;;;;;19.04;36.08;100160.03;1793575;78;21264;-80
2021/04/19 07:53:04;;;;;;;9.38;5.15;;;;;;;18.77;35.97;100156.66;1785851;79;21162;-81
2021/04/19 07:55:39;;;;;;;6.60;5.15;;;;;;;18.59;36.98;100164.98;1771320;79;21191;-78
2021/04/19 07:58:23;;;;;;;7.87;4.90;;;;;;;18.78;36.51;100162.38;1782649;79;21251;-82
2021/04/19 08:00:53;;;;;;;8.95;5.22;;;;;;;19.12;36.96;100161.28;1781818;79;21210;-80
2021/04/19 08:03:22;;;;;;;7.25;5.00;;;;;;;19.18;36.49;100158.19;1777544;79;26682;-79
2021/04/19 08:05:52;;;;;;;6.58;5.03;;;;;;;18.96;36.44;100166.91;1780401;79;21157;-79
2021/04/19 08:08:36;;;;;;;5.00;4.47;;;;;;;18.74;35.98;100162.19;1780959;79;21206;-80
2021/04/19 08:11:16;;;;;;;10.68;5.83;;;;;;;18.37;37.29;100165.60;1779631;79;21633;-80
2021/04/19 08:13:44;;;;;;;9.35;5.72;;;;;;;17.80;38.66;100161.41;1783087;79;22250;-79
2021/04/19 08:19:04;;;;;;;8.05;5.87;;;;;;;16.83;41.76;100165.47;1789842;79;22602;-80
2021/04/19 08:21:34;;;;;;;12.88;6.40;;;;;;;16.58;42.14;100164.28;1765975;80;21603;-79
2021/04/19 08:24:14;;;;;;;9.75;6.58;;;;;;;16.12;42.69;100160.42;1760395;80;21442;-80
2021/04/19 08:26:56;;;;;;;7.25;5.17;;;;;;;15.28;43.79;100160.83;1762985;80;21188;-80
2021/04/19 08:29:40;;;;;;;9.13;6.80;;;;;;;15.28;43.79;100160.83;1766799;80;21284;-79
2021/04/19 08:32:09;;;;;;;11.85;6.80;;;;;;;14.91;45.07;100162.02;1751681;80;21176;-79
2021/04/19 08:34:37;;;;;;;12.30;6.33;;;;;;;14.57;46.05;100157.66;1765943;80;21194;-78
2021/04/19 08:37:08;;;;;;;9.28;6.65;;;;;;;14.38;46.88;100163.91;1765406;80;21709;-80
2021/04/19 08:39:37;;;;;;;8.15;5.60;;;;;;;14.20;47.31;100158.23;1761457;80;21663;-79
2021/04/19 08:42:06;;;;;;;;;;;;;;;14.36;46.60;100157.83;1751960;80;21160;-80
2021/04/19 08:44:36;;;;;;;6.85;5.65;;;;;;;14.63;44.87;100149.37;1760758;80;20321;-80
2021/04/19 08:47:04;;;;;;;7.58;5.37;;;;;;;14.79;44.43;100146.31;1751267;81;21204;-80
2021/04/19 08:49:34;;;;;;;9.35;5.10;;;;;;;14.80;44.10;100152.45;1761204;80;22945;-80
2021/04/19 08:52:02;;;;;;;7.03;5.00;;;;;;;14.69;44.07;100151.70;1761674;80;21145;-79
2021/04/19 08:54:31;;;;;;;8.10;5.62;;;;;;;14.54;43.97;100149.83;1752704;81;21147;-80
2021/04/19 08:56:59;;;;;;;7.42;5.45;;;;;;;14.35;43.74;100152.13;1738566;80;21529;-80
2021/04/19 08:59:29;;;;;;;7.95;5.17;;;;;;;14.17;44.29;100153.08;1767865;80;21186;-79
2021/04/19 09:01:57;;;;;;;7.22;5.10;;;;;;;13.97;44.42;100160.27;1759535;80;21469;-79
2021/04/19 09:04:25;;;;;;;7.05;4.72;;;;;;;13.78;44.83;100158.13;1762790;80;21195;-81
2021/04/19 09:06:55;;;;;;;8.10;5.92;;;;;;;13.61;45.73;100158.97;1759676;80;21179;-79
2021/04/19 09:09:42;;;;;;;6.55;4.90;;;;;;;13.46;47.04;100155.30;1757201;80;21567;-80
2021/04/19 09:12:15;;;;;;;7.72;5.62;;;;;;;13.33;45.52;100158.14;1752128;81;21196;-79
2021/04/19 09:14:44;;;;;;;17.42;5.53;;;;;;;13.19;46.35;100158.30;1750479;81;21316;-80
2021/04/19 09:17:25;;;;;;;8.73;6.10;;;;;;;13.16;47.63;100163.73;1773339;80;21695;-79
2021/04/19 09:19:59;;;;;;;8.33;6.20;;;;;;;13.11;48.32;100159.14;1770313;80;21165;-79
2021/04/19 09:22:27;;;;;;;12.13;6.67;;;;;;;13.04;48.40;100156.36;1725157;82;21171;-79
2021/04/19 09:25:16;;;;;;;7.92;6.22;;;;;;;13.11;48.45;100149.88;1763379;80;21200;-80
2021/04/19 09:27:53;;;;;;;6.25;5.25;;;;;;;13.48;47.87;100142.86;1769716;80;21326;-80
2021/04/19 09:30:27;;;;;;;15.95;6.10;;;;;;;14.01;47.29;100136.67;1772619;80;21227;-80
2021/04/19 09:33:10;;;;;;;6.10;4.28;;;;;;;14.79;43.39;100144.98;1772607;80;21171;-78
2021/04/19 09:35:45;;;;;;;9.10;4.87;;;;;;;15.43;41.57;100143.17;1761812;80;21374;-79
2021/04/19 09:38:37;;;;;;;8.73;4.47;;;;;;;16.12;40.54;100140.50;1772557;79;21595;-80
2021/04/19 09:41:08;;;;;;;10.88;5.10;;;;;;;16.62;38.88;100133.55;1750614;80;21335;-81
2021/04/19 09:43:43;;;;;;;6.97;4.90;;;;;;;17.15;37.77;100126.66;1756930;80;21143;-81
2021/04/19 09:46:21;;;;;;;9.55;4.65;;;;;;;17.63;37.52;100123.08;1763209;80;21699;-79
2021/04/19 09:48:56;;;;;;;7.17;5.00;;;;;;;17.88;34.95;100126.80;1772272;80;21178;-80
2021/04/19 09:51:38;;;;;;;10.28;6.55;;;;;;;17.62;35.99;100133.34;1728068;80;21144;-81
2021/04/19 09:54:16;;;;;;;6.85;4.30;;;;;;;17.44;37.27;100141.20;1758347;80;21345;-82
2021/04/19 09:56:50;;;;;;;6.78;5.17;;;;;;;17.59;38.47;100134.88;1773702;80;21187;-81
2021/04/19 09:59:21;;;;;;;7.28;5.53;;;;;;;18.03;37.40;100136.41;1765913;80;21187;-78
2021/04/19 10:01:52;;;;;;;10.00;6.42;;;;;;;18.32;36.28;100145.56;1763711;80;21278;-80
2021/04/19 10:04:22;;;;;;;16.27;7.15;;;;;;;18.44;35.53;100142.88;1768682;80;21195;-79
2021/04/19 10:06:57;;;;;;;8.53;5.28;;;;;;;18.29;35.63;100143.09;1773476;80;21761;-81
2021/04/19 10:09:27;;;;;;;10.88;6.45;;;;;;;18.05;35.14;100137.16;1751460;80;21234;-79
2021/04/19 10:12:03;;;;;;;18.20;7.00;;;;;;;17.89;36.11;100132.49;1762241;80;21179;-81
2021/04/19 10:14:38;;;;;;;13.90;6.00;;;;;;;18.11;36.44;100132.75;1764542;80;21175;-81
2021/04/19 10:17:18;;;;;;;6.47;4.50;;;;;;;18.54;35.54;100132.91;1764388;80;21181;-78
2021/04/19 10:19:51;;;;;;;7.25;4.90;;;;;;;18.80;32.25;100133.78;1749207;81;21227;-81
2021/04/19 10:22:19;;;;;;;6.28;4.72;;;;;;;18.79;35.22;100136.06;1695136;84;21241;-81
2021/04/19 10:24:56;;;;;;;9.85;3.70;;;;;;;18.96;35.12;100133.05;1752321;81;21187;-81
2021/04/19 10:27:30;;;;;;;5.47;3.70;;;;;;;19.33;33.87;100130.38;1743207;81;21204;-81
2021/04/19 10:30:14;;;;;;;8.83;3.47;;;;;;;19.77;31.70;100123.56;1757777;81;21181;-79
2021/04/19 10:32:43;;;;;;;5.30;3.70;;;;;;;20.23;31.84;100129.89;1754075;81;21382;-80
2021/04/19 10:35:39;;;;;;;7.28;4.40;;;;;;;20.28;30.22;100131.23;1685286;84;21723;-79
2021/04/19 10:38:09;;;;;;;6.83;4.85;;;;;;;19.77;31.30;100128.91;1689094;84;21466;-78
2021/04/19 10:40:37;;;;;;;8.18;4.60;;;;;;;18.99;32.84;100131.48;1743040;81;21188;-78
2021/04/19 10:43:08;;;;;;;6.72;4.95;;;;;;;18.36;34.33;100140.41;1748510;81;21438;-78
2021/04/19 10:45:35;;;;;;;6.95;4.17;;;;;;;17.73;35.86;100140.14;1748798;80;21186;-78
2021/04/19 10:48:22;;;;;;;13.45;4.90;;;;;;;17.28;35.24;100143.55;1752899;81;21163;-78
2021/04/19 10:50:53;;;;;;;8.23;4.15;;;;;;;16.91;36.12;100148.56;1743635;81;21139;-77
2021/04/19 10:53:37;;;;;;;7.78;4.95;;;;;;;16.62;37.56;100149.49;1765493;81;25110;-77
2021/04/19 10:56:09;;;;;;;12.88;4.87;;;;;;;16.57;36.77;100147.12;1723760;83;21184;-77
2021/04/19 10:58:38;;;;;;;7.45;5.00;;;;;;;16.46;37.61;100145.59;1751273;81;21816;-78
2021/04/19 11:01:07;;;;;;;;;;;;;;;16.32;38.00;100151.75;1768536;81;21196;-76
2021/04/19 11:03:37;;;;;;;6.53;4.30;;;;;;;16.36;38.68;100144.83;1749460;80;20533;-76
2021/04/19 11:06:09;;;;;;;7.35;4.25;;;;;;;16.48;38.67;100139.71;1737317;81;21441;-76
2021/04/19 11:09:07;;;;;;;5.08;4.05;;;;;;;16.63;37.58;100143.21;1759445;81;24183;-77
2021/04/19 11:11:42;;;;;;;6.33;4.37;;;;;;;16.67;37.50;100143.41;1762373;81;21457;-76
2021/04/19 11:14:22;;;;;;;5.60;4.28;;;;;;;16.61;37.56;100149.09;1735050;81;21211;-75
2021/04/19 11:17:02;;;;;;;5.27;3.33;;;;;;;16.41;37.94;100149.86;1759087;81;21176;-77
2021/04/19 11:19:34;;;;;;;8.43;4.00;;;;;;;16.15;38.87;100146.13;1765304;80;21610;-77
2021/04/19 11:22:22;;;;;;;6.75;4.70;;;;;;;15.94;39.36;100146.91;1747995;81;21191;-77
2021/04/19 11:24:52;;;;;;;5.75;4.20;;;;;;;15.80;39.33;100146.39;1742594;81;21616;-76
2021/04/19 11:27:25;;;;;;;8.28;5.28;;;;;;;15.54;39.80;100142.56;1760574;81;22180;-78
2021/04/19 11:29:53;;;;;;;7.05;4.85;;;;;;;15.40;40.74;100146.02;1732530;81;21164;-75
2021/04/19 11:32:33;;;;;;;7.70;5.60;;;;;;;15.26;40.96;100146.79;1740042;81;21214;-76
2021/04/19 11:35:04;;;;;;;9.33;6.10;;;;;;;15.05;41.71;100142.22;1719475;83;21178;-76
2021/04/19 11:37:37;;;;;;;5.87;4.70;;;;;;;14.84;43.00;100144.25;1729489;81;21618;-77
2021/04/19 11:40:07;;;;;;;9.13;5.10;;;;;;;14.79;42.87;100146.31;1746228;81;22182;-77
2021/04/19 11:42:36;;;;;;;7.95;5.50;;;;;;;14.82;42.77;100148.78;1734449;81;21167;-77
2021/04/19 11:45:06;;;;;;;7.40;5.00;;;;;;;14.85;43.19;100146.43;1755336;81;21246;-76
2021/04/19 11:47:34;;;;;;;9.55;5.58;;;;;;;14.82;43.11;100139.50;1685925;84;21703;-73
2021/04/19 11:50:03;;;;;;;7.78;5.65;;;;;;;14.79;42.33;100142.33;1716383;82;21184;-75
2021/04/19 11:52:32;;;;;;;6.70;5.85;;;;;;;14.67;42.47;100133.70;1700744;84;21207;-78
2021/04/19 11:55:00;;;;;;;8.45;4.92;;;;;;;14.50;41.46;100133.73;1689933;84;21207;-76